Flight Track Log - Related Links

Times and Time Zones

All times are in EDT time to prevent confusion due to time zone crossing. See the SWA193 flight status page for this flight to view local times or setup timezone preferences in your user account.

Time Position Orientation Groundspeed Altitude Reporting Facility
EDT Latitude Longitude Course Direction KTS MPH feet Rate Location/Type
Fri 07:46:09 AM 26.0750 -80.1319 86° East 145 167 900  Level Miami Center
Fri 07:47:10 AM 26.0783 -80.0767 86° East 208 239 2,800 2,571 Climbing Miami Center
Fri 07:48:15 AM 26.0864 -79.9958 84° East 258 297 6,300 3,312 Climbing Miami Center
Fri 07:49:15 AM 26.1131 -79.9225 68° East 263 303 9,700 2,850 Climbing Miami Center
Fri 07:50:15 AM 26.1564 -79.8428 59° Northeast 271 312 12,000 2,450 Climbing Miami Center
Fri 07:51:15 AM 26.2083 -79.7514 58° Northeast 306 352 14,600 2,850 Climbing Miami Center
Fri 07:52:15 AM 26.2625 -79.6553 58° Northeast 343 395 17,700 2,750 Climbing Miami Center
Fri 07:53:15 AM 26.3308 -79.5689 49° Northeast 373 429 20,100 2,200 Climbing Miami Center
Fri 07:54:15 AM 26.4156 -79.5083 33° Northeast 380 437 22,100 2,150 Climbing Miami Center
Fri 07:55:15 AM 26.5236 -79.4294 33° Northeast 406 467 24,400 2,150 Climbing Miami Center
Fri 07:56:15 AM 26.6250 -79.3619 31° Northeast 420 483 26,400 1,950 Climbing Miami Center
Fri 07:57:15 AM 26.7308 -79.2872 32° Northeast 431 496 28,300 1,800 Climbing Miami Center
Fri 07:58:15 AM 26.8364 -79.2103 33° Northeast 437 503 30,000 1,800 Climbing Miami Center
Fri 07:59:15 AM 26.9400 -79.1308 34° Northeast 442 509 31,900 1,750 Climbing Miami Center
Fri 08:00:15 AM 27.0497 -79.0583 30° Northeast 448 516 33,500 1,450 Climbing Miami Center
Fri 08:01:15 AM 27.1428 -78.9878 34° Northeast 448 516 34,800 1,450 Climbing Miami Center
Fri 08:02:15 AM 27.2589 -78.9033 33° Northeast 448 516 36,400 1,750 Climbing Miami Center
Fri 08:03:15 AM 27.3600 -78.8281 33° Northeast 443 510 38,300 1,300 Climbing Miami Center
Fri 08:04:15 AM 27.4714 -78.7878 18° North 417 480 39,000 350 Climbing Miami Center
Fri 08:05:15 AM 27.5739 -78.7731 North 397 457 39,000  Level Miami Center
Fri 08:06:15 AM 27.6950 -78.7564 North 402 463 39,000  Level Miami Center
Fri 08:07:15 AM 27.8081 -78.7394 North 407 468 39,000  Level Miami Center
Fri 08:08:15 AM 27.9189 -78.7225 North 407 468 39,000  Level Miami Center
Fri 08:09:15 AM 28.0278 -78.7078 North 401 461 39,000  Level Miami Center
Fri 08:10:15 AM 28.1386 -78.6931 North 401 461 39,000  Level Miami Center
Fri 08:11:15 AM 28.2536 -78.6739 North 401 461 39,000  Level Miami Center
Fri 08:12:15 AM 28.3625 -78.6592 North 401 461 39,000  Level Miami Center
Fri 08:13:15 AM 28.4733 -78.6419 North 401 461 39,000  Level Miami Center
Fri 08:14:15 AM 28.5842 -78.6247 North 406 467 39,000  Level Miami Center
Fri 08:15:15 AM 28.6928 -78.6075 North 406 467 39,000  Level Miami Center
Fri 08:16:15 AM 28.8097 -78.5953 North 406 467 39,000  Level Miami Center
Fri 08:17:15 AM 28.9164 -78.5778 North 401 461 39,000  Level Miami Center
Fri 08:18:15 AM 29.0253 -78.5581 North 401 461 39,000  Level Miami Center
Fri 08:19:15 AM 29.1400 -78.5433 North 401 461 39,000  Level Miami Center
Fri 08:20:15 AM 29.2508 -78.5283 North 402 463 39,000  Level Miami Center
Fri 08:21:15 AM 29.3700 -78.5136 North 409 471 39,000  Level Miami Center
Fri 08:22:15 AM 29.4725 -78.4936 10° North 403 464 39,000  Level Miami Center
Fri 08:23:15 AM 29.5853 -78.4761 North 408 470 39,000  Level Miami Center
Fri 08:24:15 AM 29.6981 -78.4611 North 400 460 39,000  Level Miami Center
Fri 08:24:40 AM 29.7383 -78.4489 15° North 404 465 39,000  Level Jacksonville Center
Fri 08:25:40 AM 29.8503 -78.4317 North 410 472 39,000  Level Jacksonville Center
Fri 08:26:40 AM 29.9639 -78.3978 14° North 411 473 39,000  Level Jacksonville Center
Fri 08:27:40 AM 30.0733 -78.3636 15° North 415 478 39,000  Level Jacksonville Center
Fri 08:28:40 AM 30.1889 -78.3294 14° North 418 481 39,000  Level Jacksonville Center
Fri 08:29:39 AM 30.2817 -78.2939 18° North 412 474 39,000  Level Jacksonville Center
Fri 08:30:40 AM 30.3972 -78.2569 15° North 412 474 39,000  Level Jacksonville Center
Fri 08:31:39 AM 30.5022 -78.2181 18° North 406 467 39,000  Level Jacksonville Center
Fri 08:32:40 AM 30.6219 -78.1833 14° North 417 480 39,000  Level Jacksonville Center
Fri 08:33:39 AM 30.7356 -78.1464 16° North 410 472 39,000  Level Jacksonville Center
Fri 08:34:40 AM 30.8447 -78.1069 17° North 410 472 39,000  Level Jacksonville Center
Fri 08:35:39 AM 30.9581 -78.0722 15° North 416 479 39,000  Level Jacksonville Center
Fri 08:36:40 AM 31.0692 -78.0300 18° North 416 479 39,000  Level Jacksonville Center
Fri 08:37:40 AM 31.1800 -77.9831 20° North 416 479 39,000  Level Jacksonville Center
Fri 08:38:40 AM 31.2933 -77.9456 16° North 416 479 39,000  Level Jacksonville Center
Fri 08:39:40 AM 31.4031 -77.9178 12° North 416 479 39,000  Level Jacksonville Center
Fri 08:40:40 AM 31.5142 -77.8778 17° North 411 473 39,000  Level Jacksonville Center
Fri 08:41:40 AM 31.6250 -77.8303 20° North 411 473 39,000  Level Jacksonville Center
Fri 08:42:40 AM 31.7361 -77.7950 15° North 411 473 39,000  Level Jacksonville Center
Fri 08:43:40 AM 31.8497 -77.7594 15° North 411 473 39,000  Level Jacksonville Center
Fri 08:44:40 AM 31.9608 -77.7261 14° North 411 473 39,000  Level Jacksonville Center
Fri 08:45:40 AM 32.0739 -77.6831 18° North 411 473 39,000  Level Jacksonville Center
Fri 08:46:40 AM 32.1872 -77.6472 15° North 411 473 39,000  Level Jacksonville Center
Fri 08:47:40 AM 32.2983 -77.6064 17° North 411 473 39,000  Level Jacksonville Center
Fri 08:48:40 AM 32.4114 -77.5678 16° North 411 473 39,000  Level Jacksonville Center
Fri 08:49:40 AM 32.5247 -77.5292 16° North 411 473 39,000  Level Jacksonville Center
Fri 08:50:40 AM 32.6481 -77.4875 16° North 419 482 39,000  Level Jacksonville Center
Fri 08:51:40 AM 32.7589 -77.4461 17° North 419 482 39,000  Level Jacksonville Center
Fri 08:52:40 AM 32.8700 -77.4072 16° North 419 482 39,000  Level Jacksonville Center
Fri 08:53:41 AM 32.9842 -77.3689 16° North 415 478 39,000  Level Washington Center
Fri 08:54:41 AM 33.0933 -77.3292 17° North 393 452 39,000  Level Washington Center
Fri 08:55:42 AM 33.2044 -77.2892 17° North 404 465 39,000  Level Washington Center
Fri 08:56:43 AM 33.3175 -77.2517 15° North 409 471 39,000  Level Washington Center
Fri 08:57:41 AM 33.4308 -77.2142 15° North 409 471 39,000  Level Washington Center
Fri 08:58:42 AM 33.5461 -77.1717 17° North 420 483 39,000  Level Washington Center
Fri 08:59:42 AM 33.6614 -77.1289 17° North 420 483 39,000  Level Washington Center
Fri 09:00:43 AM 33.7786 -77.0886 16° North 420 483 39,000  Level Washington Center
Fri 09:01:41 AM 33.8958 -77.0456 17° North 425 489 39,000  Level Washington Center
Fri 09:02:41 AM 34.0133 -77.0025 17° North 431 496 39,000  Level Washington Center
Fri 09:03:42 AM 34.1306 -76.9594 17° North 431 496 39,000  Level Washington Center
Fri 09:04:43 AM 34.2500 -76.9186 16° North 437 503 39,000  Level Washington Center
Fri 09:05:43 AM 34.3672 -76.8778 16° North 437 503 39,000  Level Washington Center
Fri 09:06:41 AM 34.4825 -76.8317 18° North 437 503 39,000  Level Washington Center
Fri 09:07:41 AM 34.5978 -76.7906 16° North 437 503 39,000  Level Washington Center
Fri 09:08:42 AM 34.7128 -76.7494 16° North 437 503 39,000  Level Washington Center
Fri 09:09:42 AM 34.8258 -76.7103 16° North 427 491 39,000  Level Washington Center
Fri 09:10:43 AM 34.9411 -76.6639 18° North 427 491 39,000  Level Washington Center
Fri 09:11:43 AM 35.0561 -76.6247 16° North 422 486 39,000  Level Washington Center
Fri 09:12:40 AM 35.1567 -76.5853 18° North 422 486 39,000  Level Washington Center
Fri 09:13:41 AM 35.2739 -76.5436 16° North 422 486 39,000  Level Washington Center
Fri 09:14:42 AM 35.3911 -76.4967 18° North 429 494 39,000  Level Washington Center
Fri 09:15:42 AM 35.5061 -76.4494 18° North 429 494 39,000  Level Washington Center
Fri 09:16:41 AM 35.6233 -76.4097 15° North 429 494 39,000  Level Washington Center
Fri 09:17:42 AM 35.7383 -76.3647 18° North 429 494 39,000  Level Washington Center
Fri 09:18:43 AM 35.8533 -76.3225 17° North 429 494 39,000  Level Washington Center
Fri 09:19:43 AM 35.9706 -76.2772 17° North 429 494 39,000  Level Washington Center
Fri 09:20:42 AM 36.0875 -76.2319 17° North 429 494 39,000  Level Washington Center
Fri 09:21:42 AM 36.2067 -76.1892 16° North 429 494 39,000  Level Washington Center
Fri 09:22:40 AM 36.3217 -76.1461 17° North 429 494 39,000  Level Washington Center
Fri 09:23:41 AM 36.4367 -76.1031 17° North 429 494 39,000  Level Washington Center
Fri 09:24:42 AM 36.5494 -76.0572 18° North 429 494 39,000  Level Washington Center
Fri 09:25:43 AM 36.6622 -76.0139 17° North 418 481 39,000  Level Washington Center
Fri 09:26:43 AM 36.7875 -75.9653 17° North 418 481 39,000  Level Washington Center
Fri 09:27:41 AM 36.9067 -75.9167 18° North 423 487 39,000  Level Washington Center
Fri 09:28:42 AM 37.0256 -75.8756 15° North 429 494 39,000  Level Washington Center
Fri 09:29:43 AM 37.1406 -75.8317 17° North 429 494 39,000  Level Washington Center
Fri 09:30:41 AM 37.2553 -75.7850 18° North 429 494 39,000  Level Washington Center
Fri 09:31:42 AM 37.3700 -75.7408 17° North 429 494 39,000  Level Washington Center
Fri 09:32:43 AM 37.4828 -75.6967 17° North 429 494 39,000  Level Washington Center
Fri 09:33:40 AM 37.5975 -75.6494 18° North 424 488 39,000  Level Washington Center
Fri 09:34:41 AM 37.7122 -75.6050 17° North 424 488 39,000  Level Washington Center
Fri 09:35:41 AM 37.8269 -75.5575 18° North 424 488 39,000  Level Washington Center
Fri 09:36:42 AM 37.9417 -75.5128 17° North 424 488 39,000  Level Washington Center
Fri 09:37:42 AM 38.0564 -75.4678 17° North 424 488 39,000  Level Washington Center
Fri 09:38:43 AM 38.1731 -75.3989 25° Northeast 430 495 39,000  Level Washington Center
Fri 09:39:41 AM 38.2811 -75.3272 27° Northeast 435 501 39,000  Level Washington Center
Fri 09:40:42 AM 38.3936 -75.2525 27° Northeast 446 513 39,000  Level Washington Center
Fri 09:41:43 AM 38.5061 -75.1778 27° Northeast 446 513 39,000  Level Washington Center
Fri 09:42:41 AM 38.6183 -75.1133 24° Northeast 446 513 39,000  Level Washington Center
Fri 09:43:42 AM 38.7306 -75.0381 28° Northeast 446 513 39,000  Level Washington Center
Fri 09:44:42 AM 38.8428 -74.9653 27° Northeast 446 513 39,000 -793 Level Washington Center
Fri 09:45:43 AM 38.9569 -74.8897 27° Northeast 446 513 37,400 -2,218 Descending Washington Center
Fri 09:46:41 AM 39.0669 -74.8189 27° Northeast 446 513 34,600 -2,863 Descending Washington Center
Fri 09:48:16 AM 39.2103 -74.6319 45° Northeast 486 559 30,100 -2,632 Descending New York Center
Fri 09:49:16 AM 39.2872 -74.5075 51° Northeast 459 528 27,800 -2,250 Descending New York Center
Fri 09:50:16 AM 39.3639 -74.3878 50° Northeast 444 511 25,600 -2,200 Descending New York Center
Fri 09:51:16 AM 39.4361 -74.2758 50° Northeast 423 487 23,400 -2,132 Descending New York Center
Fri 09:52:17 AM 39.5081 -74.1667 49° Northeast 407 468 21,300 -1,339 Descending New York Center
Fri 09:53:17 AM 39.5758 -74.0567 51° Northeast 396 456 20,700 -807 Descending New York Center
Fri 09:54:16 AM 39.6456 -73.9494 50° Northeast 390 449 19,700 -1,000 Descending New York Center
Fri 09:55:17 AM 39.7131 -73.8444 50° Northeast 385 443 18,700 -800 Descending New York Center
Fri 09:56:16 AM 39.7783 -73.7394 51° Northeast 385 443 18,100 -807 Descending New York Center
Fri 09:57:16 AM 39.8456 -73.6342 50° Northeast 380 437 17,100 -967 Descending New York Center
Fri 09:59:16 AM 39.9764 -73.4553 46° Northeast 368 423 15,200 -767 Descending Boston Center
Fri 10:00:16 AM 40.0481 -73.3697 42° Northeast 355 409 14,800 -1,100 Descending Boston Center
Fri 10:01:16 AM 40.1236 -73.2814 42° Northeast 350 403 13,000 -1,900 Descending Boston Center
Fri 10:02:16 AM 40.1931 -73.1981 42° Northeast 344 396 11,000 -1,950 Descending Boston Center
Fri 10:03:16 AM 40.2625 -73.1144 43° Northeast 344 396 9,100 -1,000 Descending Boston Center
Fri 10:04:16 AM 40.3275 -73.0361 43° Northeast 334 384 9,000 -100 Descending Boston Center
Fri 10:05:16 AM 40.3925 -72.9578 43° Northeast 322 371 8,900 -995 Descending Boston Center
Fri 10:07:23 AM 40.5333 -72.8333 34° Northeast 286 329 5,900 -1,380 Descending New York TRACON
Fri 10:08:23 AM 40.5833 -72.9000 315° West 266 306 4,600 -1,200 Descending New York TRACON
Fri 10:09:23 AM 40.6167 -72.9667 303° West 253 291 3,500 -950 Descending New York TRACON
Fri 10:10:23 AM 40.6667 -73.0500 308° West 249 287 2,700 -446 Descending New York TRACON
Fri 10:11:24 AM 40.7000 -73.1167 303° West 200 230 2,600 -400 Descending New York TRACON
Fri 10:12:23 AM 40.7167 -73.1500 303° West 146 168 1,900 -807 Descending New York TRACON
Fri 10:13:23 AM 40.7500 -73.1500 360° North 136 157 1,000 -843 Descending New York TRACON
Fri 10:14:24 AM 40.7833 -73.1167 37° Northeast 135 155 200 -787 Descending New York TRACON

Login

Don't have an account? Register now (free) for customized features, flight alerts, and more!